LYBE - BEOGRAD / NIKOLA TESLA

Compiled: 21:29:59 on 19/01/2018

Latest METAR/SPECI Reports

METAR LYBE 192100Z 27010KT 9999 SCT040 04/02 Q1014 NOSIG=

Previous reports

METAR LYBE 192030Z 27011KT 9999 -RA FEW010 BKN033 04/02 Q1014 NOSIG=
METAR LYBE 192000Z 28009KT 9999 -RA FEW010 BKN033 04/02 Q1013 NOSIG=
METAR LYBE 191930Z 29005KT 9999 FEW026 BKN033 04/03 Q1013 NOSIG=
METAR LYBE 191900Z 36004KT 300V040 9999 -RA FEW023 BKN033 04/03 Q1012 NOSIG=

Latest TAF report

TAF LYBE 191700Z 1918/2018 34010KT 9999 SCT015 BKN033 TX05/1918Z TN01/2006Z TEMPO 1918/1923 5000 RA PROB40 TEMPO 1918/1920 34015G30KT 5000 SHRA SCT030TCU BKN033 TEMPO 1923/2006 3000 RASN BKN013 BKN030=

Valid WARNINGS

No valid warnings for LYBE